sensor_id;sensor_type;location;lat;lon;timestamp;temperature;humidity
52869;DHT22;39100;53.480;6.158;2024-02-23T00:02:16;5.30;99.90
52869;DHT22;39100;53.480;6.158;2024-02-23T00:04:42;5.40;99.90
52869;DHT22;39100;53.480;6.158;2024-02-23T00:07:07;5.40;99.90
52869;DHT22;39100;53.480;6.158;2024-02-23T00:09:33;5.50;99.90
52869;DHT22;39100;53.480;6.158;2024-02-23T00:11:59;5.40;99.90
52869;DHT22;39100;53.480;6.158;2024-02-23T00:14:25;5.50;99.90
52869;DHT22;39100;53.480;6.158;2024-02-23T00:16:51;5.60;99.90
52869;DHT22;39100;53.480;6.158;2024-02-23T00:19:16;5.60;99.90
52869;DHT22;39100;53.480;6.158;2024-02-23T00:21:44;5.70;99.90
52869;DHT22;39100;53.480;6.158;2024-02-23T00:24:15;5.70;99.90
52869;DHT22;39100;53.480;6.158;2024-02-23T00:26:42;5.80;99.90
52869;DHT22;39100;53.480;6.158;2024-02-23T00:29:07;5.90;99.90
52869;DHT22;39100;53.480;6.158;2024-02-23T00:31:33;5.90;99.90
52869;DHT22;39100;53.480;6.158;2024-02-23T00:33:59;6.10;99.90
52869;DHT22;39100;53.480;6.158;2024-02-23T00:36:24;6.10;99.90
52869;DHT22;39100;53.480;6.158;2024-02-23T00:38:50;6.30;99.90
52869;DHT22;39100;53.480;6.158;2024-02-23T00:41:16;6.10;99.90
52869;DHT22;39100;53.480;6.158;2024-02-23T00:43:41;6.10;99.90
52869;DHT22;39100;53.480;6.158;2024-02-23T00:46:08;5.90;99.90
52869;DHT22;39100;53.480;6.158;2024-02-23T00:48:34;5.40;99.90
52869;DHT22;39100;53.480;6.158;2024-02-23T00:51:00;5.10;99.90
52869;DHT22;39100;53.480;6.158;2024-02-23T00:53:26;5.20;99.90
52869;DHT22;39100;53.480;6.158;2024-02-23T00:55:52;5.10;99.90
52869;DHT22;39100;53.480;6.158;2024-02-23T00:58:17;5.10;99.90
52869;DHT22;39100;53.480;6.158;2024-02-23T01:00:44;5.00;99.90
52869;DHT22;39100;53.480;6.158;2024-02-23T01:03:09;5.00;99.90
52869;DHT22;39100;53.480;6.158;2024-02-23T01:05:35;5.00;99.90
52869;DHT22;39100;53.480;6.158;2024-02-23T01:08:01;5.10;99.90
52869;DHT22;39100;53.480;6.158;2024-02-23T01:10:26;5.10;99.90
52869;DHT22;39100;53.480;6.158;2024-02-23T01:12:52;5.10;99.90
52869;DHT22;39100;53.480;6.158;2024-02-23T01:15:18;5.10;99.90
52869;DHT22;39100;53.480;6.158;2024-02-23T01:17:43;5.30;99.90
52869;DHT22;39100;53.480;6.158;2024-02-23T01:20:09;5.30;99.90
52869;DHT22;39100;53.480;6.158;2024-02-23T01:22:35;5.40;99.90
52869;DHT22;39100;53.480;6.158;2024-02-23T01:25:00;5.40;99.90
52869;DHT22;39100;53.480;6.158;2024-02-23T01:27:26;5.50;99.90
52869;DHT22;39100;53.480;6.158;2024-02-23T01:29:51;5.60;99.90
52869;DHT22;39100;53.480;6.158;2024-02-23T01:32:17;5.60;99.90
52869;DHT22;39100;53.480;6.158;2024-02-23T01:34:43;5.70;99.90
52869;DHT22;39100;53.480;6.158;2024-02-23T01:37:08;5.80;99.90
52869;DHT22;39100;53.480;6.158;2024-02-23T01:39:34;5.70;99.90
52869;DHT22;39100;53.480;6.158;2024-02-23T01:41:59;5.70;99.90
52869;DHT22;39100;53.480;6.158;2024-02-23T01:44:25;5.80;99.90
52869;DHT22;39100;53.480;6.158;2024-02-23T01:46:51;5.90;99.90
52869;DHT22;39100;53.480;6.158;2024-02-23T01:49:17;5.90;99.90
52869;DHT22;39100;53.480;6.158;2024-02-23T01:51:43;6.00;99.90
52869;DHT22;39100;53.480;6.158;2024-02-23T01:54:09;6.00;99.90
52869;DHT22;39100;53.480;6.158;2024-02-23T01:56:36;6.00;99.90
52869;DHT22;39100;53.480;6.158;2024-02-23T01:59:04;6.00;99.90
52869;DHT22;39100;53.480;6.158;2024-02-23T02:01:31;6.00;99.90
52869;DHT22;39100;53.480;6.158;2024-02-23T02:03:57;5.90;99.90
52869;DHT22;39100;53.480;6.158;2024-02-23T02:06:24;6.00;99.90
52869;DHT22;39100;53.480;6.158;2024-02-23T02:08:50;6.00;99.90
52869;DHT22;39100;53.480;6.158;2024-02-23T02:11:16;6.00;99.90
52869;DHT22;39100;53.480;6.158;2024-02-23T02:13:41;6.00;99.90
52869;DHT22;39100;53.480;6.158;2024-02-23T02:16:07;5.90;99.90
52869;DHT22;39100;53.480;6.158;2024-02-23T02:18:32;6.00;99.90
52869;DHT22;39100;53.480;6.158;2024-02-23T02:20:58;6.00;99.90
52869;DHT22;39100;53.480;6.158;2024-02-23T02:23:25;6.10;99.90
52869;DHT22;39100;53.480;6.158;2024-02-23T02:25:58;6.00;99.90
52869;DHT22;39100;53.480;6.158;2024-02-23T02:28:24;6.10;99.90
52869;DHT22;39100;53.480;6.158;2024-02-23T02:30:53;6.10;99.90
52869;DHT22;39100;53.480;6.158;2024-02-23T02:33:19;6.10;99.90
52869;DHT22;39100;53.480;6.158;2024-02-23T02:35:45;6.00;99.90
52869;DHT22;39100;53.480;6.158;2024-02-23T02:38:11;6.00;99.90
52869;DHT22;39100;53.480;6.158;2024-02-23T02:40:37;6.00;99.90
52869;DHT22;39100;53.480;6.158;2024-02-23T02:43:03;5.90;99.90
52869;DHT22;39100;53.480;6.158;2024-02-23T02:45:29;6.00;99.90
52869;DHT22;39100;53.480;6.158;2024-02-23T02:47:55;5.80;99.90
52869;DHT22;39100;53.480;6.158;2024-02-23T02:50:22;5.50;99.90
52869;DHT22;39100;53.480;6.158;2024-02-23T02:52:47;5.40;99.90
52869;DHT22;39100;53.480;6.158;2024-02-23T02:55:13;5.50;99.90
52869;DHT22;39100;53.480;6.158;2024-02-23T02:57:38;5.50;99.90
52869;DHT22;39100;53.480;6.158;2024-02-23T03:00:05;5.70;99.90
52869;DHT22;39100;53.480;6.158;2024-02-23T03:02:31;5.70;99.90
52869;DHT22;39100;53.480;6.158;2024-02-23T03:04:57;5.80;99.90
52869;DHT22;39100;53.480;6.158;2024-02-23T03:07:23;5.80;99.90
52869;DHT22;39100;53.480;6.158;2024-02-23T03:09:48;5.70;99.90
52869;DHT22;39100;53.480;6.158;2024-02-23T03:12:16;5.70;99.90
52869;DHT22;39100;53.480;6.158;2024-02-23T03:14:42;5.80;99.90
52869;DHT22;39100;53.480;6.158;2024-02-23T03:17:08;5.80;99.90
52869;DHT22;39100;53.480;6.158;2024-02-23T03:19:34;5.80;99.90
52869;DHT22;39100;53.480;6.158;2024-02-23T03:22:00;5.80;99.90
52869;DHT22;39100;53.480;6.158;2024-02-23T03:24:26;5.80;99.90
52869;DHT22;39100;53.480;6.158;2024-02-23T03:26:51;5.80;99.90
52869;DHT22;39100;53.480;6.158;2024-02-23T03:29:17;5.70;99.90
52869;DHT22;39100;53.480;6.158;2024-02-23T03:31:43;5.60;99.90
52869;DHT22;39100;53.480;6.158;2024-02-23T03:34:08;5.50;99.90
52869;DHT22;39100;53.480;6.158;2024-02-23T03:36:34;5.50;99.90
52869;DHT22;39100;53.480;6.158;2024-02-23T03:39:00;5.50;99.90
52869;DHT22;39100;53.480;6.158;2024-02-23T03:41:26;5.50;99.90
52869;DHT22;39100;53.480;6.158;2024-02-23T03:43:52;5.50;99.90
52869;DHT22;39100;53.480;6.158;2024-02-23T03:46:17;5.50;99.90
52869;DHT22;39100;53.480;6.158;2024-02-23T03:48:44;5.50;99.90
52869;DHT22;39100;53.480;6.158;2024-02-23T03:51:10;5.50;99.90
52869;DHT22;39100;53.480;6.158;2024-02-23T03:53:35;5.60;99.90
52869;DHT22;39100;53.480;6.158;2024-02-23T03:56:01;5.60;99.90
52869;DHT22;39100;53.480;6.158;2024-02-23T03:58:27;5.50;99.90
52869;DHT22;39100;53.480;6.158;2024-02-23T04:00:52;5.50;99.90
52869;DHT22;39100;53.480;6.158;2024-02-23T04:03:18;5.40;99.90
52869;DHT22;39100;53.480;6.158;2024-02-23T04:05:44;5.40;99.90
52869;DHT22;39100;53.480;6.158;2024-02-23T04:08:09;5.40;99.90
52869;DHT22;39100;53.480;6.158;2024-02-23T04:10:35;5.40;99.90
52869;DHT22;39100;53.480;6.158;2024-02-23T04:13:01;5.40;99.90
52869;DHT22;39100;53.480;6.158;2024-02-23T04:15:27;5.50;99.90
52869;DHT22;39100;53.480;6.158;2024-02-23T04:17:52;5.50;99.90
52869;DHT22;39100;53.480;6.158;2024-02-23T04:20:18;5.50;99.90
52869;DHT22;39100;53.480;6.158;2024-02-23T04:22:44;5.50;99.90
52869;DHT22;39100;53.480;6.158;2024-02-23T04:25:09;5.60;99.90
52869;DHT22;39100;53.480;6.158;2024-02-23T04:27:35;5.50;99.90
52869;DHT22;39100;53.480;6.158;2024-02-23T04:30:01;5.50;99.90
52869;DHT22;39100;53.480;6.158;2024-02-23T04:32:27;5.50;99.90
52869;DHT22;39100;53.480;6.158;2024-02-23T04:34:52;5.50;99.90
52869;DHT22;39100;53.480;6.158;2024-02-23T04:37:18;5.50;99.90
52869;DHT22;39100;53.480;6.158;2024-02-23T04:39:44;5.50;99.90
52869;DHT22;39100;53.480;6.158;2024-02-23T04:42:09;5.50;99.90
52869;DHT22;39100;53.480;6.158;2024-02-23T04:44:35;5.50;99.90
52869;DHT22;39100;53.480;6.158;2024-02-23T04:47:01;5.50;99.90
52869;DHT22;39100;53.480;6.158;2024-02-23T04:49:27;5.40;99.90
52869;DHT22;39100;53.480;6.158;2024-02-23T04:51:53;5.40;99.90
52869;DHT22;39100;53.480;6.158;2024-02-23T04:54:18;5.40;99.90
52869;DHT22;39100;53.480;6.158;2024-02-23T04:56:44;5.40;99.90
52869;DHT22;39100;53.480;6.158;2024-02-23T04:59:10;5.50;99.90
52869;DHT22;39100;53.480;6.158;2024-02-23T05:01:38;5.50;99.90
52869;DHT22;39100;53.480;6.158;2024-02-23T05:04:04;5.40;99.90
52869;DHT22;39100;53.480;6.158;2024-02-23T05:06:30;5.50;99.90
52869;DHT22;39100;53.480;6.158;2024-02-23T05:08:56;5.50;99.90
52869;DHT22;39100;53.480;6.158;2024-02-23T05:11:21;5.40;99.90
52869;DHT22;39100;53.480;6.158;2024-02-23T05:13:47;5.40;99.90
52869;DHT22;39100;53.480;6.158;2024-02-23T05:16:16;5.40;99.90
52869;DHT22;39100;53.480;6.158;2024-02-23T05:18:41;5.50;99.90
52869;DHT22;39100;53.480;6.158;2024-02-23T05:21:07;5.50;99.90
52869;DHT22;39100;53.480;6.158;2024-02-23T05:23:33;5.50;99.90
52869;DHT22;39100;53.480;6.158;2024-02-23T05:25:58;5.50;99.90
52869;DHT22;39100;53.480;6.158;2024-02-23T05:28:24;5.60;99.90
52869;DHT22;39100;53.480;6.158;2024-02-23T05:30:50;5.60;99.90
52869;DHT22;39100;53.480;6.158;2024-02-23T05:33:16;5.60;99.90
52869;DHT22;39100;53.480;6.158;2024-02-23T05:35:41;5.60;99.90
52869;DHT22;39100;53.480;6.158;2024-02-23T05:38:07;5.50;99.90
52869;DHT22;39100;53.480;6.158;2024-02-23T05:40:33;5.50;99.90
52869;DHT22;39100;53.480;6.158;2024-02-23T05:42:58;5.50;99.90
52869;DHT22;39100;53.480;6.158;2024-02-23T05:45:24;5.40;99.90
52869;DHT22;39100;53.480;6.158;2024-02-23T05:47:50;5.40;99.90
52869;DHT22;39100;53.480;6.158;2024-02-23T05:50:15;5.40;99.90
52869;DHT22;39100;53.480;6.158;2024-02-23T05:52:41;5.40;99.90
52869;DHT22;39100;53.480;6.158;2024-02-23T05:55:07;5.40;99.90
52869;DHT22;39100;53.480;6.158;2024-02-23T05:57:33;5.30;99.90
52869;DHT22;39100;53.480;6.158;2024-02-23T05:59:59;5.30;99.90
52869;DHT22;39100;53.480;6.158;2024-02-23T06:02:25;5.30;99.90
52869;DHT22;39100;53.480;6.158;2024-02-23T06:04:50;5.30;99.90
52869;DHT22;39100;53.480;6.158;2024-02-23T06:07:16;5.30;99.90
52869;DHT22;39100;53.480;6.158;2024-02-23T06:09:42;5.30;99.90
52869;DHT22;39100;53.480;6.158;2024-02-23T06:12:08;5.20;99.90
52869;DHT22;39100;53.480;6.158;2024-02-23T06:14:34;5.20;99.90
52869;DHT22;39100;53.480;6.158;2024-02-23T06:17:00;5.20;99.90
52869;DHT22;39100;53.480;6.158;2024-02-23T06:19:26;5.20;99.90
52869;DHT22;39100;53.480;6.158;2024-02-23T06:21:51;5.20;99.90
52869;DHT22;39100;53.480;6.158;2024-02-23T06:24:17;5.20;99.90
52869;DHT22;39100;53.480;6.158;2024-02-23T06:26:43;5.20;99.90
52869;DHT22;39100;53.480;6.158;2024-02-23T06:29:08;5.20;99.90
52869;DHT22;39100;53.480;6.158;2024-02-23T06:31:37;5.20;99.90
52869;DHT22;39100;53.480;6.158;2024-02-23T06:34:04;5.20;99.90
52869;DHT22;39100;53.480;6.158;2024-02-23T06:36:29;5.10;99.90
52869;DHT22;39100;53.480;6.158;2024-02-23T06:38:55;5.10;99.90
52869;DHT22;39100;53.480;6.158;2024-02-23T06:41:21;5.10;99.90
52869;DHT22;39100;53.480;6.158;2024-02-23T06:43:46;5.10;99.90
52869;DHT22;39100;53.480;6.158;2024-02-23T06:46:12;5.10;99.90
52869;DHT22;39100;53.480;6.158;2024-02-23T06:48:38;5.10;99.90
52869;DHT22;39100;53.480;6.158;2024-02-23T06:51:04;5.10;99.90
52869;DHT22;39100;53.480;6.158;2024-02-23T06:53:30;5.20;99.90
52869;DHT22;39100;53.480;6.158;2024-02-23T06:55:56;5.10;99.90
52869;DHT22;39100;53.480;6.158;2024-02-23T06:58:21;5.20;99.90
52869;DHT22;39100;53.480;6.158;2024-02-23T07:00:47;5.20;99.90
52869;DHT22;39100;53.480;6.158;2024-02-23T07:03:13;5.20;99.90
52869;DHT22;39100;53.480;6.158;2024-02-23T07:05:40;5.10;99.90
52869;DHT22;39100;53.480;6.158;2024-02-23T07:08:07;5.10;99.90
52869;DHT22;39100;53.480;6.158;2024-02-23T07:10:33;5.20;99.90
52869;DHT22;39100;53.480;6.158;2024-02-23T07:12:59;5.30;99.90
52869;DHT22;39100;53.480;6.158;2024-02-23T07:15:24;5.30;99.90
52869;DHT22;39100;53.480;6.158;2024-02-23T07:17:51;5.40;99.90
52869;DHT22;39100;53.480;6.158;2024-02-23T07:20:17;5.30;99.90
52869;DHT22;39100;53.480;6.158;2024-02-23T07:22:46;5.50;99.90
52869;DHT22;39100;53.480;6.158;2024-02-23T07:25:15;5.40;99.90
52869;DHT22;39100;53.480;6.158;2024-02-23T07:27:41;5.50;99.90
52869;DHT22;39100;53.480;6.158;2024-02-23T07:30:07;5.60;99.90
52869;DHT22;39100;53.480;6.158;2024-02-23T07:32:33;5.60;99.90
52869;DHT22;39100;53.480;6.158;2024-02-23T07:34:59;5.60;99.90
52869;DHT22;39100;53.480;6.158;2024-02-23T07:37:26;5.80;99.90
52869;DHT22;39100;53.480;6.158;2024-02-23T07:39:52;5.90;99.90
52869;DHT22;39100;53.480;6.158;2024-02-23T07:42:18;6.00;99.90
52869;DHT22;39100;53.480;6.158;2024-02-23T07:44:44;6.00;99.90
52869;DHT22;39100;53.480;6.158;2024-02-23T07:47:11;6.00;99.90
52869;DHT22;39100;53.480;6.158;2024-02-23T07:49:36;5.90;99.90
52869;DHT22;39100;53.480;6.158;2024-02-23T07:52:03;5.90;99.90
52869;DHT22;39100;53.480;6.158;2024-02-23T07:54:28;5.90;99.90
52869;DHT22;39100;53.480;6.158;2024-02-23T07:56:54;6.00;99.90
52869;DHT22;39100;53.480;6.158;2024-02-23T07:59:20;6.00;99.90
52869;DHT22;39100;53.480;6.158;2024-02-23T08:01:45;6.10;99.90
52869;DHT22;39100;53.480;6.158;2024-02-23T08:04:12;6.00;99.90
52869;DHT22;39100;53.480;6.158;2024-02-23T08:06:39;6.10;99.90
52869;DHT22;39100;53.480;6.158;2024-02-23T08:09:04;6.10;99.90
52869;DHT22;39100;53.480;6.158;2024-02-23T08:11:30;6.10;99.90
52869;DHT22;39100;53.480;6.158;2024-02-23T08:13:55;6.50;99.90
52869;DHT22;39100;53.480;6.158;2024-02-23T08:16:21;6.10;99.90
52869;DHT22;39100;53.480;6.158;2024-02-23T08:18:47;6.10;99.90
52869;DHT22;39100;53.480;6.158;2024-02-23T08:21:12;6.10;99.90
52869;DHT22;39100;53.480;6.158;2024-02-23T08:23:38;6.20;99.90
52869;DHT22;39100;53.480;6.158;2024-02-23T08:26:04;6.10;99.90
52869;DHT22;39100;53.480;6.158;2024-02-23T08:28:29;6.20;99.90
52869;DHT22;39100;53.480;6.158;2024-02-23T08:30:55;6.20;99.90
52869;DHT22;39100;53.480;6.158;2024-02-23T08:33:20;6.20;99.90
52869;DHT22;39100;53.480;6.158;2024-02-23T08:35:46;6.10;99.90
52869;DHT22;39100;53.480;6.158;2024-02-23T08:38:13;6.10;99.90
52869;DHT22;39100;53.480;6.158;2024-02-23T08:40:39;6.10;99.90
52869;DHT22;39100;53.480;6.158;2024-02-23T08:43:05;6.10;99.90
52869;DHT22;39100;53.480;6.158;2024-02-23T08:45:30;6.10;99.90
52869;DHT22;39100;53.480;6.158;2024-02-23T08:47:56;6.10;99.90
52869;DHT22;39100;53.480;6.158;2024-02-23T08:50:22;6.10;99.90
52869;DHT22;39100;53.480;6.158;2024-02-23T08:52:47;6.20;99.90
52869;DHT22;39100;53.480;6.158;2024-02-23T08:55:13;6.20;99.90
52869;DHT22;39100;53.480;6.158;2024-02-23T08:57:38;6.30;99.90
52869;DHT22;39100;53.480;6.158;2024-02-23T09:00:05;6.30;99.90
52869;DHT22;39100;53.480;6.158;2024-02-23T09:02:31;6.20;99.90
52869;DHT22;39100;53.480;6.158;2024-02-23T09:04:58;6.20;99.90
52869;DHT22;39100;53.480;6.158;2024-02-23T09:07:23;6.20;99.90
52869;DHT22;39100;53.480;6.158;2024-02-23T09:09:49;6.20;99.90
52869;DHT22;39100;53.480;6.158;2024-02-23T09:12:18;6.20;99.90
52869;DHT22;39100;53.480;6.158;2024-02-23T09:14:44;6.20;99.90
52869;DHT22;39100;53.480;6.158;2024-02-23T09:17:09;6.20;99.90
52869;DHT22;39100;53.480;6.158;2024-02-23T09:19:36;6.20;99.90
52869;DHT22;39100;53.480;6.158;2024-02-23T09:22:02;6.20;99.90
52869;DHT22;39100;53.480;6.158;2024-02-23T09:24:28;6.20;99.90
52869;DHT22;39100;53.480;6.158;2024-02-23T09:26:54;6.20;99.90
52869;DHT22;39100;53.480;6.158;2024-02-23T09:29:20;6.20;99.90
52869;DHT22;39100;53.480;6.158;2024-02-23T09:31:47;6.30;99.90
52869;DHT22;39100;53.480;6.158;2024-02-23T09:34:12;6.30;99.90
52869;DHT22;39100;53.480;6.158;2024-02-23T09:36:38;6.30;99.90
52869;DHT22;39100;53.480;6.158;2024-02-23T09:39:03;6.30;99.90
52869;DHT22;39100;53.480;6.158;2024-02-23T09:41:30;6.30;99.90
52869;DHT22;39100;53.480;6.158;2024-02-23T09:43:59;6.40;99.90
52869;DHT22;39100;53.480;6.158;2024-02-23T09:46:26;6.40;99.90
52869;DHT22;39100;53.480;6.158;2024-02-23T09:48:52;6.40;99.90
52869;DHT22;39100;53.480;6.158;2024-02-23T09:51:18;6.40;99.90
52869;DHT22;39100;53.480;6.158;2024-02-23T09:53:47;6.40;99.90
52869;DHT22;39100;53.480;6.158;2024-02-23T09:56:15;6.50;99.90
52869;DHT22;39100;53.480;6.158;2024-02-23T09:58:44;6.50;99.90
52869;DHT22;39100;53.480;6.158;2024-02-23T10:01:11;6.50;99.90
52869;DHT22;39100;53.480;6.158;2024-02-23T10:03:37;6.50;99.90
52869;DHT22;39100;53.480;6.158;2024-02-23T10:06:04;6.50;99.90
52869;DHT22;39100;53.480;6.158;2024-02-23T10:08:30;6.50;99.90
52869;DHT22;39100;53.480;6.158;2024-02-23T10:10:56;6.60;99.90
52869;DHT22;39100;53.480;6.158;2024-02-23T10:13:23;6.70;99.90
52869;DHT22;39100;53.480;6.158;2024-02-23T10:15:52;6.90;99.90
52869;DHT22;39100;53.480;6.158;2024-02-23T10:18:18;7.00;99.90
52869;DHT22;39100;53.480;6.158;2024-02-23T10:20:44;7.00;99.90
52869;DHT22;39100;53.480;6.158;2024-02-23T10:23:10;7.00;99.90
52869;DHT22;39100;53.480;6.158;2024-02-23T10:25:36;6.90;99.90
52869;DHT22;39100;53.480;6.158;2024-02-23T10:28:03;6.90;99.90
52869;DHT22;39100;53.480;6.158;2024-02-23T10:30:28;6.60;99.90
52869;DHT22;39100;53.480;6.158;2024-02-23T10:32:56;6.60;99.90
52869;DHT22;39100;53.480;6.158;2024-02-23T10:35:23;6.30;99.90
52869;DHT22;39100;53.480;6.158;2024-02-23T10:37:49;6.30;99.90
52869;DHT22;39100;53.480;6.158;2024-02-23T10:40:18;6.20;99.90
52869;DHT22;39100;53.480;6.158;2024-02-23T10:42:44;6.20;99.90
52869;DHT22;39100;53.480;6.158;2024-02-23T10:45:17;6.20;99.90
52869;DHT22;39100;53.480;6.158;2024-02-23T10:47:44;6.10;99.90
52869;DHT22;39100;53.480;6.158;2024-02-23T10:50:10;6.20;99.90
52869;DHT22;39100;53.480;6.158;2024-02-23T10:52:43;6.30;99.90
52869;DHT22;39100;53.480;6.158;2024-02-23T10:55:10;6.20;99.90
52869;DHT22;39100;53.480;6.158;2024-02-23T10:57:36;6.20;99.90
52869;DHT22;39100;53.480;6.158;2024-02-23T11:00:02;6.20;99.90
52869;DHT22;39100;53.480;6.158;2024-02-23T11:02:40;6.20;99.90
52869;DHT22;39100;53.480;6.158;2024-02-23T11:05:07;6.20;99.90
52869;DHT22;39100;53.480;6.158;2024-02-23T11:07:38;6.40;99.90
52869;DHT22;39100;53.480;6.158;2024-02-23T11:10:05;6.40;99.90
52869;DHT22;39100;53.480;6.158;2024-02-23T11:12:30;6.20;99.90
52869;DHT22;39100;53.480;6.158;2024-02-23T11:14:57;6.20;99.90
52869;DHT22;39100;53.480;6.158;2024-02-23T11:17:27;6.20;99.90
52869;DHT22;39100;53.480;6.158;2024-02-23T11:19:56;6.20;99.90
52869;DHT22;39100;53.480;6.158;2024-02-23T11:22:31;6.20;99.90
52869;DHT22;39100;53.480;6.158;2024-02-23T11:25:01;6.20;99.90
52869;DHT22;39100;53.480;6.158;2024-02-23T11:27:31;6.20;99.90
52869;DHT22;39100;53.480;6.158;2024-02-23T11:30:03;6.30;99.90
52869;DHT22;39100;53.480;6.158;2024-02-23T11:32:40;6.30;99.90
52869;DHT22;39100;53.480;6.158;2024-02-23T11:35:07;6.40;99.90
52869;DHT22;39100;53.480;6.158;2024-02-23T11:37:47;6.40;99.90
52869;DHT22;39100;53.480;6.158;2024-02-23T11:40:13;6.50;99.90
52869;DHT22;39100;53.480;6.158;2024-02-23T11:42:41;6.40;99.90
52869;DHT22;39100;53.480;6.158;2024-02-23T11:45:08;6.50;99.90
52869;DHT22;39100;53.480;6.158;2024-02-23T11:47:33;6.50;99.90
52869;DHT22;39100;53.480;6.158;2024-02-23T11:49:59;6.50;99.90
52869;DHT22;39100;53.480;6.158;2024-02-23T11:52:25;6.50;99.90
52869;DHT22;39100;53.480;6.158;2024-02-23T11:54:51;6.50;99.90
52869;DHT22;39100;53.480;6.158;2024-02-23T11:57:16;6.60;99.90
52869;DHT22;39100;53.480;6.158;2024-02-23T11:59:42;6.50;99.90
52869;DHT22;39100;53.480;6.158;2024-02-23T12:02:08;6.60;99.90
52869;DHT22;39100;53.480;6.158;2024-02-23T12:04:33;6.60;99.90
52869;DHT22;39100;53.480;6.158;2024-02-23T12:07:00;6.60;99.90
52869;DHT22;39100;53.480;6.158;2024-02-23T12:09:26;6.60;99.90
52869;DHT22;39100;53.480;6.158;2024-02-23T12:11:52;6.50;99.90
52869;DHT22;39100;53.480;6.158;2024-02-23T12:14:18;6.50;99.90
52869;DHT22;39100;53.480;6.158;2024-02-23T12:16:43;6.50;99.90
52869;DHT22;39100;53.480;6.158;2024-02-23T12:19:10;6.50;99.90
52869;DHT22;39100;53.480;6.158;2024-02-23T12:21:36;6.60;99.90
52869;DHT22;39100;53.480;6.158;2024-02-23T12:24:04;6.60;99.90
52869;DHT22;39100;53.480;6.158;2024-02-23T12:26:34;6.70;99.90
52869;DHT22;39100;53.480;6.158;2024-02-23T12:29:03;6.60;99.90
52869;DHT22;39100;53.480;6.158;2024-02-23T12:31:30;6.60;99.90
52869;DHT22;39100;53.480;6.158;2024-02-23T12:33:57;6.60;99.90
52869;DHT22;39100;53.480;6.158;2024-02-23T12:36:23;6.70;99.90
52869;DHT22;39100;53.480;6.158;2024-02-23T12:38:49;6.70;99.90
52869;DHT22;39100;53.480;6.158;2024-02-23T12:41:14;6.60;99.90
52869;DHT22;39100;53.480;6.158;2024-02-23T12:43:40;6.60;99.90
52869;DHT22;39100;53.480;6.158;2024-02-23T12:46:06;6.60;99.90
52869;DHT22;39100;53.480;6.158;2024-02-23T12:48:34;6.60;99.90
52869;DHT22;39100;53.480;6.158;2024-02-23T12:51:00;6.60;99.90
52869;DHT22;39100;53.480;6.158;2024-02-23T12:53:39;6.60;99.90
52869;DHT22;39100;53.480;6.158;2024-02-23T12:58:31;7.30;99.90
52869;DHT22;39100;53.480;6.158;2024-02-23T13:00:57;7.40;99.90
52869;DHT22;39100;53.480;6.158;2024-02-23T13:03:24;7.70;99.90
52869;DHT22;39100;53.480;6.158;2024-02-23T13:05:51;7.80;99.90
52869;DHT22;39100;53.480;6.158;2024-02-23T13:08:16;7.90;99.90
52869;DHT22;39100;53.480;6.158;2024-02-23T13:10:43;8.00;99.90
52869;DHT22;39100;53.480;6.158;2024-02-23T13:13:09;8.00;99.90
52869;DHT22;39100;53.480;6.158;2024-02-23T13:15:34;7.90;99.90
52869;DHT22;39100;53.480;6.158;2024-02-23T13:18:03;7.90;99.90
52869;DHT22;39100;53.480;6.158;2024-02-23T13:20:29;7.80;99.90
52869;DHT22;39100;53.480;6.158;2024-02-23T13:22:54;7.90;99.90
52869;DHT22;39100;53.480;6.158;2024-02-23T13:25:21;7.90;99.90
52869;DHT22;39100;53.480;6.158;2024-02-23T13:27:47;7.80;99.90
52869;DHT22;39100;53.480;6.158;2024-02-23T13:30:13;7.80;99.90
52869;DHT22;39100;53.480;6.158;2024-02-23T13:32:38;7.80;99.90
52869;DHT22;39100;53.480;6.158;2024-02-23T13:35:04;8.10;99.90
52869;DHT22;39100;53.480;6.158;2024-02-23T13:37:31;8.20;99.90
52869;DHT22;39100;53.480;6.158;2024-02-23T13:39:57;8.20;99.90
52869;DHT22;39100;53.480;6.158;2024-02-23T13:42:23;8.10;99.90
52869;DHT22;39100;53.480;6.158;2024-02-23T13:44:49;8.10;99.90
52869;DHT22;39100;53.480;6.158;2024-02-23T13:47:14;8.10;99.90
52869;DHT22;39100;53.480;6.158;2024-02-23T13:49:40;8.60;99.90
52869;DHT22;39100;53.480;6.158;2024-02-23T13:52:06;8.90;99.90
52869;DHT22;39100;53.480;6.158;2024-02-23T13:54:31;8.90;99.90
52869;DHT22;39100;53.480;6.158;2024-02-23T13:56:57;8.80;99.90
52869;DHT22;39100;53.480;6.158;2024-02-23T13:59:22;8.80;99.90
52869;DHT22;39100;53.480;6.158;2024-02-23T14:01:48;8.60;99.90
52869;DHT22;39100;53.480;6.158;2024-02-23T14:04:14;8.40;99.90
52869;DHT22;39100;53.480;6.158;2024-02-23T14:06:39;8.20;99.90
52869;DHT22;39100;53.480;6.158;2024-02-23T14:09:05;8.00;99.90
52869;DHT22;39100;53.480;6.158;2024-02-23T14:11:31;8.00;99.90
52869;DHT22;39100;53.480;6.158;2024-02-23T14:13:57;7.90;99.90
52869;DHT22;39100;53.480;6.158;2024-02-23T14:16:23;8.00;99.90
52869;DHT22;39100;53.480;6.158;2024-02-23T14:18:49;8.00;99.90
52869;DHT22;39100;53.480;6.158;2024-02-23T14:21:15;7.90;99.90
52869;DHT22;39100;53.480;6.158;2024-02-23T14:23:41;7.90;99.90
52869;DHT22;39100;53.480;6.158;2024-02-23T14:26:07;7.90;99.90
52869;DHT22;39100;53.480;6.158;2024-02-23T14:28:33;7.80;99.90
52869;DHT22;39100;53.480;6.158;2024-02-23T14:30:59;7.80;99.90
52869;DHT22;39100;53.480;6.158;2024-02-23T14:33:24;7.70;99.90
52869;DHT22;39100;53.480;6.158;2024-02-23T14:35:50;7.70;99.90
52869;DHT22;39100;53.480;6.158;2024-02-23T14:38:16;7.70;99.90
52869;DHT22;39100;53.480;6.158;2024-02-23T14:40:42;7.60;99.90
52869;DHT22;39100;53.480;6.158;2024-02-23T14:43:08;7.70;99.90
52869;DHT22;39100;53.480;6.158;2024-02-23T14:45:35;7.60;99.90
52869;DHT22;39100;53.480;6.158;2024-02-23T14:48:00;7.60;99.90
52869;DHT22;39100;53.480;6.158;2024-02-23T14:50:26;7.60;99.90
52869;DHT22;39100;53.480;6.158;2024-02-23T14:52:52;7.70;99.90
52869;DHT22;39100;53.480;6.158;2024-02-23T14:55:17;7.70;99.90
52869;DHT22;39100;53.480;6.158;2024-02-23T14:57:43;7.60;99.90
52869;DHT22;39100;53.480;6.158;2024-02-23T15:00:09;7.60;99.90
52869;DHT22;39100;53.480;6.158;2024-02-23T15:02:35;7.50;99.90
52869;DHT22;39100;53.480;6.158;2024-02-23T15:05:01;7.50;99.90
52869;DHT22;39100;53.480;6.158;2024-02-23T15:07:26;7.50;99.90
52869;DHT22;39100;53.480;6.158;2024-02-23T15:09:53;7.40;99.90
52869;DHT22;39100;53.480;6.158;2024-02-23T15:12:19;7.50;99.90
52869;DHT22;39100;53.480;6.158;2024-02-23T15:14:44;7.70;99.90
52869;DHT22;39100;53.480;6.158;2024-02-23T15:17:10;7.80;99.90
52869;DHT22;39100;53.480;6.158;2024-02-23T15:19:36;8.30;99.90
52869;DHT22;39100;53.480;6.158;2024-02-23T15:22:01;8.10;99.90
52869;DHT22;39100;53.480;6.158;2024-02-23T15:24:27;8.20;99.90
52869;DHT22;39100;53.480;6.158;2024-02-23T15:26:53;8.10;99.90
52869;DHT22;39100;53.480;6.158;2024-02-23T15:29:18;8.10;99.90
52869;DHT22;39100;53.480;6.158;2024-02-23T15:31:44;8.10;99.90
52869;DHT22;39100;53.480;6.158;2024-02-23T15:34:10;8.10;99.90
52869;DHT22;39100;53.480;6.158;2024-02-23T15:36:36;8.00;99.90
52869;DHT22;39100;53.480;6.158;2024-02-23T15:39:01;7.90;99.90
52869;DHT22;39100;53.480;6.158;2024-02-23T15:41:32;7.90;99.90